createdAt,value
2017-08-01T00:00:52.970Z,0
2017-08-01T00:01:54.785Z,0
2017-08-01T00:02:56.619Z,0
2017-08-01T00:03:58.486Z,0
2017-08-01T00:05:00.362Z,0
2017-08-01T00:06:02.257Z,0
2017-08-01T00:07:16.425Z,0
2017-08-01T00:08:18.297Z,0
2017-08-01T00:09:20.194Z,0
2017-08-01T00:10:22.070Z,0
2017-08-01T00:11:23.901Z,0
2017-08-01T00:12:25.714Z,0
2017-08-01T00:13:27.606Z,0
2017-08-01T00:14:29.483Z,0
2017-08-01T00:15:31.346Z,0
2017-08-01T00:16:45.492Z,0
2017-08-01T00:17:47.359Z,0
2017-08-01T00:18:49.238Z,0
2017-08-01T00:19:51.135Z,0
2017-08-01T00:20:52.971Z,0
2017-08-01T00:21:54.808Z,0
2017-08-01T00:22:56.717Z,0
2017-08-01T00:23:58.600Z,0
2017-08-01T00:25:00.470Z,0
2017-08-01T00:26:14.614Z,0
2017-08-01T00:27:16.491Z,0
2017-08-01T00:28:18.379Z,0
2017-08-01T00:29:20.257Z,0
2017-08-01T00:30:22.069Z,0
2017-08-01T00:31:23.875Z,0
2017-08-01T00:32:25.746Z,0
2017-08-01T00:33:27.620Z,0
2017-08-01T00:34:29.478Z,0
2017-08-01T00:35:43.622Z,0
2017-08-01T00:36:45.492Z,0
2017-08-01T00:37:47.368Z,0
2017-08-01T00:38:49.266Z,0
2017-08-01T00:39:51.097Z,0
2017-08-01T00:40:52.907Z,0
2017-08-01T00:41:54.781Z,0
2017-08-01T00:42:56.650Z,0
2017-08-01T00:43:58.518Z,0
2017-08-01T00:45:12.665Z,0
2017-08-01T00:46:14.534Z,0
2017-08-01T00:47:16.405Z,0
2017-08-01T00:48:18.278Z,0
2017-08-01T00:49:20.108Z,0
2017-08-01T00:50:21.920Z,0
2017-08-01T00:51:23.789Z,0
2017-08-01T00:52:25.661Z,0
2017-08-01T00:53:27.559Z,0
2017-08-01T00:54:41.727Z,0
2017-08-01T00:55:43.620Z,0
2017-08-01T00:56:45.494Z,0
2017-08-01T00:57:47.388Z,0
2017-08-01T00:58:49.204Z,0
2017-08-01T00:59:51.042Z,0
2017-08-01T01:00:52.937Z,0
2017-08-01T01:01:54.830Z,0
2017-08-01T01:02:56.701Z,0
2017-08-01T01:04:10.898Z,0
2017-08-01T01:05:12.841Z,0
2017-08-01T01:06:14.746Z,0
2017-08-01T01:07:16.840Z,0
2017-08-01T01:08:18.676Z,0
2017-08-01T01:09:20.511Z,0
2017-08-01T01:10:22.401Z,0
2017-08-01T01:11:24.274Z,0
2017-08-01T01:12:26.161Z,0
2017-08-01T01:13:40.311Z,0
2017-08-01T01:14:42.208Z,0
2017-08-01T01:15:44.083Z,0
2017-08-01T01:16:45.979Z,0
2017-08-01T01:17:47.816Z,0
2017-08-01T01:18:49.652Z,0
2017-08-01T01:19:51.545Z,0
2017-08-01T01:20:53.441Z,0
2017-08-01T01:21:55.309Z,0
2017-08-01T01:23:09.455Z,0
2017-08-01T01:24:11.347Z,0
2017-08-01T01:25:13.222Z,0
2017-08-01T01:26:15.098Z,0
2017-08-01T01:27:16.932Z,0
2017-08-01T01:28:18.764Z,0
2017-08-01T01:29:20.635Z,0
2017-08-01T01:30:22.514Z,0
2017-08-01T01:31:24.404Z,0
2017-08-01T01:32:38.544Z,0
2017-08-01T01:33:40.417Z,0
2017-08-01T01:34:42.316Z,0
2017-08-01T01:35:44.210Z,0
2017-08-01T01:36:46.020Z,0
2017-08-01T01:37:47.826Z,0
2017-08-01T01:38:49.722Z,0
2017-08-01T01:39:51.627Z,0
2017-08-01T01:40:53.523Z,0
2017-08-01T01:42:07.667Z,0
2017-08-01T01:43:09.563Z,0
2017-08-01T01:44:11.459Z,0
2017-08-01T01:45:13.358Z,0
2017-08-01T01:46:15.191Z,0
2017-08-01T01:47:17.003Z,0
2017-08-01T01:48:18.896Z,0
2017-08-01T01:49:20.771Z,0
2017-08-01T01:50:22.659Z,0
2017-08-01T01:51:36.802Z,0
2017-08-01T01:52:38.691Z,0
2017-08-01T01:53:40.586Z,0
2017-08-01T01:54:42.479Z,0
2017-08-01T01:55:44.313Z,0
2017-08-01T01:56:46.136Z,0
2017-08-01T01:57:48.011Z,0
2017-08-01T01:58:49.901Z,0
2017-08-01T01:59:51.777Z,0
2017-08-01T02:01:05.989Z,0
2017-08-01T02:02:07.857Z,0
2017-08-01T02:03:09.745Z,0
2017-08-01T02:04:11.620Z,0
2017-08-01T02:05:13.448Z,0
2017-08-01T02:06:15.254Z,0
2017-08-01T02:07:17.142Z,0
2017-08-01T02:08:19.016Z,0
2017-08-01T02:09:20.912Z,0
2017-08-01T02:10:35.075Z,0
2017-08-01T02:11:36.944Z,0
2017-08-01T02:12:38.820Z,0
2017-08-01T02:13:40.682Z,0
2017-08-01T02:14:42.511Z,0
2017-08-01T02:15:44.319Z,0
2017-08-01T02:16:46.207Z,0
2017-08-01T02:17:48.082Z,0
2017-08-01T02:18:49.977Z,0
2017-08-01T02:20:04.134Z,0
2017-08-01T02:21:06.008Z,0
2017-08-01T02:22:07.878Z,0
2017-08-01T02:23:09.768Z,0
2017-08-01T02:24:11.576Z,0
2017-08-01T02:25:13.392Z,0
2017-08-01T02:26:15.285Z,0
2017-08-01T02:27:17.176Z,0
2017-08-01T02:28:19.047Z,0
2017-08-01T02:29:33.189Z,0
2017-08-01T02:30:35.071Z,0
2017-08-01T02:31:36.943Z,0
2017-08-01T02:32:38.814Z,0
2017-08-01T02:33:40.645Z,0
2017-08-01T02:34:42.473Z,0
2017-08-01T02:35:44.344Z,0
2017-08-01T02:36:46.221Z,0
2017-08-01T02:37:48.118Z,0
2017-08-01T02:39:02.282Z,0
2017-08-01T02:40:04.173Z,0
2017-08-01T02:41:06.069Z,0
2017-08-01T02:42:07.962Z,0
2017-08-01T02:43:09.771Z,0
2017-08-01T02:44:11.576Z,0
2017-08-01T02:45:13.445Z,0
2017-08-01T02:46:15.313Z,0
2017-08-01T02:47:17.180Z,0
2017-08-01T02:48:31.369Z,0
2017-08-01T02:49:33.235Z,0
2017-08-01T02:50:35.107Z,0
2017-08-01T02:51:36.999Z,0
2017-08-01T02:52:38.807Z,0
2017-08-01T02:53:40.612Z,0
2017-08-01T02:54:42.491Z,0
2017-08-01T02:55:44.358Z,0
2017-08-01T02:56:46.229Z,0
2017-08-01T02:58:00.398Z,0
2017-08-01T02:59:02.283Z,0
2017-08-01T03:00:04.152Z,0
2017-08-01T03:01:06.029Z,0
2017-08-01T03:02:07.865Z,0
2017-08-01T03:03:09.695Z,0
2017-08-01T03:04:11.567Z,0
2017-08-01T03:05:13.459Z,0
2017-08-01T03:06:15.335Z,0
2017-08-01T03:07:29.496Z,0
2017-08-01T03:08:31.370Z,0
2017-08-01T03:09:33.260Z,0
2017-08-01T03:10:35.135Z,0
2017-08-01T03:11:36.968Z,0
2017-08-01T03:12:38.777Z,0
2017-08-01T03:13:40.667Z,0
2017-08-01T03:14:42.534Z,0
2017-08-01T03:15:44.406Z,0
2017-08-01T03:16:58.545Z,0
2017-08-01T03:18:00.420Z,0
2017-08-01T03:19:02.315Z,0
2017-08-01T03:20:04.190Z,0
2017-08-01T03:21:06.025Z,0
2017-08-01T03:22:07.854Z,0
2017-08-01T03:23:09.724Z,5
2017-08-01T03:24:11.636Z,5
2017-08-01T03:25:13.505Z,5
2017-08-01T03:26:27.664Z,5
2017-08-01T03:27:29.549Z,5
2017-08-01T03:28:31.428Z,5
2017-08-01T03:29:33.321Z,5
2017-08-01T03:30:35.157Z,5
2017-08-01T03:31:36.967Z,10
2017-08-01T03:32:38.838Z,10
2017-08-01T03:33:40.735Z,10
2017-08-01T03:34:42.607Z,10
2017-08-01T03:35:56.745Z,10
2017-08-01T03:36:58.622Z,10
2017-08-01T03:38:00.520Z,15
2017-08-01T03:39:02.417Z,15
2017-08-01T03:40:04.249Z,15
2017-08-01T03:41:06.057Z,15
2017-08-01T03:42:07.934Z,20
2017-08-01T03:43:09.834Z,20
2017-08-01T03:44:11.730Z,20
2017-08-01T03:45:25.875Z,20
2017-08-01T03:46:27.771Z,25
2017-08-01T03:47:29.687Z,25
2017-08-01T03:48:31.583Z,25
2017-08-01T03:49:33.425Z,30
2017-08-01T03:50:35.258Z,30
2017-08-01T03:51:37.155Z,35
2017-08-01T03:52:39.030Z,35
2017-08-01T03:53:40.908Z,40
2017-08-01T03:54:55.051Z,40
2017-08-01T03:55:56.922Z,40
2017-08-01T03:56:58.797Z,40
2017-08-01T03:58:00.721Z,40
2017-08-01T03:59:02.524Z,45
2017-08-01T04:00:04.332Z,45
2017-08-01T04:01:06.216Z,45
2017-08-01T04:02:08.108Z,50
2017-08-01T04:03:10.006Z,50
2017-08-01T04:04:24.150Z,55
2017-08-01T04:05:26.017Z,55
2017-08-01T04:06:27.891Z,55
2017-08-01T04:07:29.790Z,60
2017-08-01T04:08:31.627Z,60
2017-08-01T04:09:33.435Z,65
2017-08-01T04:10:35.315Z,65
2017-08-01T04:11:37.191Z,70
2017-08-01T04:12:39.083Z,70
2017-08-01T04:13:53.239Z,70
2017-08-01T04:14:55.134Z,75
2017-08-01T04:15:57.032Z,75
2017-08-01T04:16:58.902Z,75
2017-08-01T04:18:00.724Z,75
2017-08-01T04:19:02.538Z,75
2017-08-01T04:20:04.437Z,80
2017-08-01T04:21:06.338Z,85
2017-08-01T04:22:08.235Z,85
2017-08-01T04:23:22.398Z,90
2017-08-01T04:24:24.276Z,95
2017-08-01T04:25:26.153Z,95
2017-08-01T04:26:28.053Z,95
2017-08-01T04:27:29.892Z,100
2017-08-01T04:28:31.710Z,100
2017-08-01T04:29:33.583Z,100
2017-08-01T04:30:35.490Z,105
2017-08-01T04:31:37.393Z,105
2017-08-01T04:32:51.541Z,105
2017-08-01T04:33:53.410Z,105
2017-08-01T04:34:55.286Z,110
2017-08-01T04:35:57.187Z,110
2017-08-01T04:36:59.030Z,110
2017-08-01T04:38:00.845Z,115
2017-08-01T04:39:02.721Z,115
2017-08-01T04:40:04.623Z,120
2017-08-01T04:41:06.522Z,120
2017-08-01T04:42:20.671Z,125
2017-08-01T04:43:22.550Z,130
2017-08-01T04:44:24.452Z,130
2017-08-01T04:45:26.352Z,135
2017-08-01T04:46:28.194Z,135
2017-08-01T04:47:30.032Z,140
2017-08-01T04:48:31.935Z,140
2017-08-01T04:49:33.840Z,145
2017-08-01T04:50:35.712Z,145
2017-08-01T04:51:49.865Z,145
2017-08-01T04:52:51.741Z,150
2017-08-01T04:53:53.618Z,150
2017-08-01T04:54:55.522Z,150
2017-08-01T04:55:57.361Z,150
2017-08-01T04:56:59.176Z,150
2017-08-01T04:58:01.056Z,155
2017-08-01T04:59:02.957Z,155
2017-08-01T05:00:04.827Z,160
2017-08-01T05:01:18.985Z,160
2017-08-01T05:02:20.883Z,160
2017-08-01T05:03:22.759Z,165
2017-08-01T05:04:24.635Z,165
2017-08-01T05:05:26.453Z,175
2017-08-01T05:06:28.275Z,180
2017-08-01T05:07:30.176Z,185
2017-08-01T05:08:32.050Z,190
2017-08-01T05:09:33.934Z,190
2017-08-01T05:10:48.084Z,190
2017-08-01T05:11:49.990Z,190
2017-08-01T05:12:51.889Z,195
2017-08-01T05:13:53.785Z,195
2017-08-01T05:14:55.630Z,195
2017-08-01T05:15:57.470Z,195
2017-08-01T05:16:59.353Z,195
2017-08-01T05:18:01.259Z,185
2017-08-01T05:19:03.161Z,180
2017-08-01T05:20:17.312Z,175
2017-08-01T05:21:19.196Z,165
2017-08-01T05:22:21.057Z,150
2017-08-01T05:23:22.957Z,145
2017-08-01T05:24:24.802Z,150
2017-08-01T05:25:26.642Z,145
2017-08-01T05:26:28.538Z,145
2017-08-01T05:27:30.417Z,145
2017-08-01T05:28:32.299Z,145
2017-08-01T05:29:46.472Z,145
2017-08-01T05:30:48.344Z,135
2017-08-01T05:31:50.220Z,130
2017-08-01T05:32:52.119Z,130
2017-08-01T05:33:53.940Z,130
2017-08-01T05:34:55.778Z,130
2017-08-01T05:35:57.660Z,120
2017-08-01T05:36:59.563Z,120
2017-08-01T05:38:01.440Z,120
2017-08-01T05:39:15.592Z,120
2017-08-01T05:40:17.491Z,125
2017-08-01T05:41:19.370Z,125
2017-08-01T05:42:21.250Z,125
2017-08-01T05:43:23.091Z,130
2017-08-01T05:44:24.905Z,130
2017-08-01T05:45:26.806Z,140
2017-08-01T05:46:28.703Z,135
2017-08-01T05:47:30.586Z,135
2017-08-01T05:48:44.763Z,140
2017-08-01T05:49:46.657Z,140
2017-08-01T05:50:48.538Z,140
2017-08-01T05:51:50.439Z,135
2017-08-01T05:52:52.280Z,130
2017-08-01T05:53:54.098Z,125
2017-08-01T05:54:55.974Z,120
2017-08-01T05:55:57.851Z,115
2017-08-01T05:56:59.750Z,110
2017-08-01T05:58:13.900Z,95
2017-08-01T05:59:15.773Z,80
2017-08-01T06:00:17.655Z,70
2017-08-01T06:01:19.550Z,60
2017-08-01T06:02:21.366Z,55
2017-08-01T06:03:23.178Z,55
2017-08-01T06:04:25.058Z,60
2017-08-01T06:05:26.955Z,65
2017-08-01T06:06:28.829Z,80
2017-08-01T06:07:42.980Z,85
2017-08-01T06:08:44.855Z,85
2017-08-01T06:09:46.751Z,85
2017-08-01T06:10:48.625Z,85
2017-08-01T06:11:50.439Z,80
2017-08-01T06:12:52.258Z,85
2017-08-01T06:13:54.160Z,90
2017-08-01T06:14:56.057Z,95
2017-08-01T06:15:57.953Z,100
2017-08-01T06:17:12.107Z,105
2017-08-01T06:18:13.981Z,110
2017-08-01T06:19:15.885Z,110
2017-08-01T06:20:17.759Z,115
2017-08-01T06:21:19.572Z,115
2017-08-01T06:22:21.388Z,115
2017-08-01T06:23:23.286Z,120
2017-08-01T06:24:25.164Z,130
2017-08-01T06:25:27.044Z,135
2017-08-01T06:26:41.197Z,140
2017-08-01T06:27:43.065Z,145
2017-08-01T06:28:44.944Z,150
2017-08-01T06:29:46.845Z,150
2017-08-01T06:30:48.660Z,155
2017-08-01T06:31:50.470Z,160
2017-08-01T06:32:52.341Z,165
2017-08-01T06:33:54.221Z,155
2017-08-01T06:34:56.107Z,155
2017-08-01T06:36:10.261Z,155
2017-08-01T06:37:12.137Z,155
2017-08-01T06:38:14.038Z,155
2017-08-01T06:39:15.948Z,155
2017-08-01T06:40:17.778Z,155
2017-08-01T06:41:19.610Z,155
2017-08-01T06:42:21.489Z,155
2017-08-01T06:43:23.391Z,145
2017-08-01T06:44:25.264Z,135
2017-08-01T06:45:39.414Z,135
2017-08-01T06:46:41.308Z,135
2017-08-01T06:47:43.187Z,145
2017-08-01T06:48:45.089Z,150
2017-08-01T06:49:46.928Z,155
2017-08-01T06:50:48.739Z,160
2017-08-01T06:51:50.621Z,160
2017-08-01T06:52:52.496Z,160
2017-08-01T06:53:54.376Z,160
2017-08-01T06:55:08.520Z,160
2017-08-01T06:56:10.396Z,165
2017-08-01T06:57:12.270Z,180
2017-08-01T06:58:14.173Z,195
2017-08-01T06:59:16.012Z,200
2017-08-01T07:00:17.828Z,200
2017-08-01T07:01:19.710Z,205
2017-08-01T07:02:21.578Z,195
2017-08-01T07:03:23.474Z,195
2017-08-01T07:04:37.605Z,185
2017-08-01T07:05:39.441Z,180
2017-08-01T07:06:41.323Z,175
2017-08-01T07:07:43.223Z,175
2017-08-01T07:08:45.103Z,175
2017-08-01T07:09:46.935Z,170
2017-08-01T07:10:48.752Z,170
2017-08-01T07:11:50.631Z,165
2017-08-01T07:12:52.512Z,165
2017-08-01T07:14:06.718Z,160
2017-08-01T07:15:08.596Z,160
2017-08-01T07:16:10.510Z,160
2017-08-01T07:17:12.389Z,160
2017-08-01T07:18:14.208Z,160
2017-08-01T07:19:16.025Z,160
2017-08-01T07:20:17.922Z,160
2017-08-01T07:21:19.799Z,165
2017-08-01T07:22:21.680Z,165
2017-08-01T07:23:35.876Z,165
2017-08-01T07:24:37.755Z,165
2017-08-01T07:25:39.659Z,165
2017-08-01T07:26:41.534Z,165
2017-08-01T07:27:43.375Z,165
2017-08-01T07:28:45.192Z,165
2017-08-01T07:29:47.093Z,165
2017-08-01T07:30:48.970Z,165
2017-08-01T07:31:50.845Z,165
2017-08-01T07:33:05.045Z,165
2017-08-01T07:34:06.959Z,170
2017-08-01T07:35:08.849Z,170
2017-08-01T07:36:10.752Z,170
2017-08-01T07:37:12.591Z,175
2017-08-01T07:38:14.404Z,180
2017-08-01T07:39:16.286Z,190
2017-08-01T07:40:18.166Z,200
2017-08-01T07:41:20.067Z,210
2017-08-01T07:42:34.238Z,210
2017-08-01T07:43:36.110Z,205
2017-08-01T07:44:37.991Z,210
2017-08-01T07:45:39.906Z,205
2017-08-01T07:46:41.749Z,195
2017-08-01T07:47:43.585Z,190
2017-08-01T07:48:45.482Z,175
2017-08-01T07:49:47.368Z,175
2017-08-01T07:50:49.271Z,170
2017-08-01T07:52:03.443Z,170
2017-08-01T07:53:05.319Z,165
2017-08-01T07:54:07.194Z,165
2017-08-01T07:55:09.095Z,165
2017-08-01T07:56:10.907Z,165
2017-08-01T07:57:12.725Z,165
2017-08-01T07:58:14.605Z,160
2017-08-01T07:59:16.501Z,160
2017-08-01T08:00:18.396Z,160
2017-08-01T08:01:32.566Z,160
2017-08-01T08:02:34.464Z,160
2017-08-01T08:03:36.340Z,160
2017-08-01T08:04:38.223Z,160
2017-08-01T08:05:40.063Z,160
2017-08-01T08:06:41.900Z,160
2017-08-01T08:07:43.801Z,160
2017-08-01T08:08:45.702Z,160
2017-08-01T08:09:47.600Z,160
2017-08-01T08:11:01.751Z,165
2017-08-01T08:12:03.626Z,160
2017-08-01T08:13:05.500Z,160
2017-08-01T08:14:07.373Z,160
2017-08-01T08:15:09.198Z,155
2017-08-01T08:16:11.035Z,155
2017-08-01T08:17:12.910Z,160
2017-08-01T08:18:14.841Z,160
2017-08-01T08:19:16.713Z,160
2017-08-01T08:20:30.862Z,165
2017-08-01T08:21:32.742Z,170
2017-08-01T08:22:34.618Z,170
2017-08-01T08:23:36.528Z,165
2017-08-01T08:24:38.354Z,165
2017-08-01T08:25:40.198Z,160
2017-08-01T08:26:42.077Z,160
2017-08-01T08:27:43.956Z,160
2017-08-01T08:28:45.857Z,160
2017-08-01T08:30:00.012Z,160
2017-08-01T08:31:01.914Z,160
2017-08-01T08:32:03.814Z,160
2017-08-01T08:33:05.710Z,160
2017-08-01T08:34:07.526Z,160
2017-08-01T08:35:09.345Z,165
2017-08-01T08:36:11.239Z,165
2017-08-01T08:37:13.143Z,175
2017-08-01T08:38:15.047Z,170
2017-08-01T08:39:29.214Z,170
2017-08-01T08:40:31.094Z,170
2017-08-01T08:41:32.966Z,170
2017-08-01T08:42:34.842Z,175
2017-08-01T08:43:36.690Z,175
2017-08-01T08:44:38.521Z,180
2017-08-01T08:45:40.429Z,185
2017-08-01T08:46:42.331Z,185
2017-08-01T08:47:44.231Z,180
2017-08-01T08:48:58.386Z,180
2017-08-01T08:50:00.285Z,175
2017-08-01T08:51:02.191Z,175
2017-08-01T08:52:04.085Z,175
2017-08-01T08:53:05.904Z,175
2017-08-01T08:54:07.743Z,175
2017-08-01T08:55:09.600Z,170
2017-08-01T08:56:11.420Z,165
2017-08-01T08:57:13.262Z,165
2017-08-01T08:58:27.433Z,160
2017-08-01T08:59:29.306Z,160
2017-08-01T09:00:31.182Z,160
2017-08-01T09:01:33.065Z,160
2017-08-01T09:02:34.880Z,160
2017-08-01T09:03:36.718Z,160
2017-08-01T09:04:38.593Z,160
2017-08-01T09:05:40.469Z,160
2017-08-01T09:06:42.349Z,160
2017-08-01T09:07:56.497Z,165
2017-08-01T09:08:58.353Z,165
2017-08-01T09:10:00.272Z,165
2017-08-01T09:11:02.172Z,165
2017-08-01T09:12:04.012Z,165
2017-08-01T09:13:05.832Z,170
2017-08-01T09:14:07.730Z,170
2017-08-01T09:15:09.612Z,170
2017-08-01T09:16:11.515Z,175
2017-08-01T09:17:25.689Z,180
2017-08-01T09:18:27.565Z,180
2017-08-01T09:19:29.442Z,185
2017-08-01T09:20:31.320Z,185
2017-08-01T09:21:33.194Z,190
2017-08-01T09:22:34.995Z,195
2017-08-01T09:23:36.912Z,200
2017-08-01T09:24:38.841Z,200
2017-08-01T09:25:40.735Z,195
2017-08-01T09:26:54.907Z,190
2017-08-01T09:27:56.780Z,190
2017-08-01T09:28:58.655Z,195
2017-08-01T09:30:00.529Z,200
2017-08-01T09:31:02.375Z,200
2017-08-01T09:32:04.220Z,205
2017-08-01T09:33:06.127Z,210
2017-08-01T09:34:08.040Z,210
2017-08-01T09:35:09.941Z,215
2017-08-01T09:36:24.150Z,225
2017-08-01T09:37:26.083Z,235
2017-08-01T09:38:28.046Z,245
2017-08-01T09:39:30.190Z,245
2017-08-01T09:40:32.059Z,245
2017-08-01T09:41:33.878Z,235
2017-08-01T09:42:35.771Z,230
2017-08-01T09:43:37.699Z,225
2017-08-01T09:44:39.619Z,220
2017-08-01T09:45:53.821Z,210
2017-08-01T09:46:55.719Z,205
2017-08-01T09:47:57.633Z,200
2017-08-01T09:48:59.526Z,195
2017-08-01T09:50:01.363Z,185
2017-08-01T09:51:03.224Z,180
2017-08-01T09:52:05.165Z,175
2017-08-01T09:53:07.142Z,170
2017-08-01T09:54:09.149Z,170
2017-08-01T09:55:23.316Z,165
2017-08-01T09:56:25.255Z,165
2017-08-01T09:57:27.253Z,165
2017-08-01T09:58:29.188Z,165
2017-08-01T09:59:31.210Z,165
2017-08-01T10:00:33.065Z,165
2017-08-01T10:01:34.997Z,165
2017-08-01T10:02:36.908Z,165
2017-08-01T10:03:38.720Z,165
2017-08-01T10:04:52.962Z,165
2017-08-01T10:05:54.873Z,165
2017-08-01T10:06:56.772Z,165
2017-08-01T10:07:58.656Z,165
2017-08-01T10:09:00.497Z,165
2017-08-01T10:10:02.318Z,165
2017-08-01T10:11:04.229Z,165
2017-08-01T10:12:06.153Z,165
2017-08-01T10:13:08.087Z,165
2017-08-01T10:14:22.282Z,165
2017-08-01T10:15:24.193Z,165
2017-08-01T10:16:26.095Z,165
2017-08-01T10:17:28.007Z,165
2017-08-01T10:18:29.872Z,165
2017-08-01T10:19:31.776Z,165
2017-08-01T10:20:33.749Z,165
2017-08-01T10:21:35.679Z,165
2017-08-01T10:22:37.620Z,165
2017-08-01T10:23:51.834Z,165
2017-08-01T10:24:53.708Z,165
2017-08-01T10:25:55.608Z,165
2017-08-01T10:26:57.510Z,160
2017-08-01T10:27:59.335Z,160
2017-08-01T10:29:01.172Z,160
2017-08-01T10:30:03.074Z,160
2017-08-01T10:31:04.977Z,160
2017-08-01T10:32:06.858Z,160
2017-08-01T10:33:21.078Z,160
2017-08-01T10:34:22.954Z,160
2017-08-01T10:35:24.837Z,155
2017-08-01T10:36:26.719Z,155
2017-08-01T10:37:28.562Z,155
2017-08-01T10:38:30.407Z,160
2017-08-01T10:39:32.280Z,155
2017-08-01T10:40:34.181Z,155
2017-08-01T10:41:36.062Z,155
2017-08-01T10:42:50.238Z,155
2017-08-01T10:43:52.136Z,155
2017-08-01T10:44:54.020Z,155
2017-08-01T10:45:55.900Z,155
2017-08-01T10:46:57.740Z,155
2017-08-01T10:47:59.575Z,155
2017-08-01T10:49:01.462Z,155
2017-08-01T10:50:03.365Z,155
2017-08-01T10:51:05.249Z,150
2017-08-01T10:52:19.427Z,150
2017-08-01T10:53:21.304Z,150
2017-08-01T10:54:23.206Z,150
2017-08-01T10:55:25.114Z,150
2017-08-01T10:56:26.961Z,150
2017-08-01T10:57:28.795Z,150
2017-08-01T10:58:30.676Z,150
2017-08-01T10:59:32.579Z,150
2017-08-01T11:00:34.456Z,155
2017-08-01T11:01:48.608Z,150
2017-08-01T11:02:50.481Z,155
2017-08-01T11:03:52.362Z,155
2017-08-01T11:04:54.266Z,155
2017-08-01T11:05:56.115Z,155
2017-08-01T11:06:57.967Z,155
2017-08-01T11:07:59.841Z,155
2017-08-01T11:09:01.748Z,155
2017-08-01T11:10:03.621Z,155
2017-08-01T11:11:17.771Z,155
2017-08-01T11:12:19.649Z,155
2017-08-01T11:13:21.552Z,155
2017-08-01T11:14:23.457Z,155
2017-08-01T11:15:25.303Z,155
2017-08-01T11:16:27.118Z,155
2017-08-01T11:17:28.933Z,155
2017-08-01T11:18:30.752Z,155
2017-08-01T11:19:32.592Z,155
2017-08-01T11:20:46.770Z,155
2017-08-01T11:21:48.664Z,155
2017-08-01T11:22:50.570Z,155
2017-08-01T11:23:52.448Z,155
2017-08-01T11:24:54.269Z,155
2017-08-01T11:25:56.109Z,155
2017-08-01T11:26:58.044Z,155
2017-08-01T11:27:59.922Z,155
2017-08-01T11:29:01.803Z,155
2017-08-01T11:30:15.988Z,155
2017-08-01T11:31:17.901Z,155
2017-08-01T11:32:19.797Z,155
2017-08-01T11:33:21.699Z,155
2017-08-01T11:34:23.524Z,155
2017-08-01T11:35:25.377Z,155
2017-08-01T11:36:27.275Z,155
2017-08-01T11:37:29.166Z,155
2017-08-01T11:38:31.050Z,155
2017-08-01T11:39:45.232Z,155
2017-08-01T11:40:47.157Z,155
2017-08-01T11:41:49.032Z,155
2017-08-01T11:42:50.930Z,155
2017-08-01T11:43:52.756Z,155
2017-08-01T11:44:54.597Z,155
2017-08-01T11:45:56.501Z,155
2017-08-01T11:46:58.363Z,155
2017-08-01T11:48:00.257Z,155
2017-08-01T11:49:14.405Z,155
2017-08-01T11:50:16.285Z,155
2017-08-01T11:51:18.589Z,155
2017-08-01T11:52:20.552Z,155
2017-08-01T11:53:22.395Z,155
2017-08-01T11:54:24.231Z,160
2017-08-01T11:55:26.115Z,160
2017-08-01T11:56:28.024Z,155
2017-08-01T11:57:29.919Z,155
2017-08-01T11:58:44.082Z,160
2017-08-01T11:59:45.979Z,160
2017-08-01T12:00:47.860Z,160
2017-08-01T12:01:49.739Z,160
2017-08-01T12:02:51.581Z,160
2017-08-01T12:03:53.422Z,160
2017-08-01T12:04:55.323Z,160
2017-08-01T12:05:57.230Z,160
2017-08-01T12:06:59.141Z,160
2017-08-01T12:08:13.407Z,160
2017-08-01T12:09:15.289Z,160
2017-08-01T12:10:17.167Z,160
2017-08-01T12:11:19.071Z,160
2017-08-01T12:12:20.923Z,160
2017-08-01T12:13:22.763Z,160
2017-08-01T12:14:24.640Z,160
2017-08-01T12:15:26.546Z,165
2017-08-01T12:16:28.445Z,165
2017-08-01T12:17:42.604Z,165
2017-08-01T12:18:44.505Z,165
2017-08-01T12:19:46.385Z,165
2017-08-01T12:20:48.264Z,165
2017-08-01T12:21:50.122Z,165
2017-08-01T12:22:51.968Z,165
2017-08-01T12:23:53.874Z,165
2017-08-01T12:24:55.756Z,165
2017-08-01T12:25:57.649Z,165
2017-08-01T12:27:11.855Z,165
2017-08-01T12:28:13.742Z,165
2017-08-01T12:29:15.616Z,165
2017-08-01T12:30:17.502Z,165
2017-08-01T12:31:19.481Z,165
2017-08-01T12:32:21.268Z,165
2017-08-01T12:33:23.174Z,165
2017-08-01T12:34:25.081Z,170
2017-08-01T12:35:26.981Z,170
2017-08-01T12:36:41.158Z,170
2017-08-01T12:37:43.033Z,170
2017-08-01T12:38:44.916Z,170
2017-08-01T12:39:46.824Z,170
2017-08-01T12:40:48.712Z,170
2017-08-01T12:41:50.605Z,170
2017-08-01T12:42:52.504Z,170
2017-08-01T12:43:54.390Z,170
2017-08-01T12:44:56.290Z,170
2017-08-01T12:46:10.457Z,170
2017-08-01T12:47:12.334Z,170
2017-08-01T12:48:14.219Z,170
2017-08-01T12:49:16.184Z,170
2017-08-01T12:50:17.993Z,170
2017-08-01T12:51:19.819Z,170
2017-08-01T12:52:21.737Z,170
2017-08-01T12:53:23.650Z,170
2017-08-01T12:54:25.528Z,170
2017-08-01T12:55:39.715Z,170
2017-08-01T12:56:41.623Z,170
2017-08-01T12:57:43.527Z,170
2017-08-01T12:58:45.647Z,170
2017-08-01T12:59:47.505Z,170
2017-08-01T13:00:49.356Z,170
2017-08-01T13:01:51.200Z,170
2017-08-01T13:02:53.469Z,170
2017-08-01T13:03:55.273Z,170
2017-08-01T13:05:09.594Z,175
2017-08-01T13:06:11.521Z,175
2017-08-01T13:07:13.509Z,175
2017-08-01T13:08:15.466Z,175
2017-08-01T13:09:17.347Z,175
2017-08-01T13:10:19.198Z,175
2017-08-01T13:11:21.118Z,175
2017-08-01T13:12:23.070Z,175
2017-08-01T13:13:24.994Z,175
2017-08-01T13:14:39.220Z,175
2017-08-01T13:15:41.138Z,175
2017-08-01T13:16:43.105Z,175
2017-08-01T13:17:45.043Z,175
2017-08-01T13:18:46.923Z,175
2017-08-01T13:19:48.806Z,175
2017-08-01T13:20:50.686Z,175
2017-08-01T13:21:52.705Z,175
2017-08-01T13:22:54.653Z,175
2017-08-01T13:24:08.903Z,175
2017-08-01T13:25:10.805Z,175
2017-08-01T13:26:12.710Z,180
2017-08-01T13:27:14.733Z,175
2017-08-01T13:28:16.651Z,180
2017-08-01T13:29:18.483Z,180
2017-08-01T13:30:20.400Z,180
2017-08-01T13:31:22.477Z,180
2017-08-01T13:32:24.347Z,180
2017-08-01T13:33:38.523Z,175
2017-08-01T13:34:40.405Z,180
2017-08-01T13:35:42.289Z,180
2017-08-01T13:36:44.166Z,175
2017-08-01T13:37:45.991Z,180
2017-08-01T13:38:47.814Z,180
2017-08-01T13:39:49.729Z,180
2017-08-01T13:40:51.618Z,180
2017-08-01T13:41:53.525Z,180
2017-08-01T13:43:07.673Z,180
2017-08-01T13:44:09.553Z,180
2017-08-01T13:45:11.440Z,180
2017-08-01T13:46:13.615Z,180
2017-08-01T13:47:15.508Z,180
2017-08-01T13:48:17.429Z,180
2017-08-01T13:49:19.304Z,180
2017-08-01T13:50:21.282Z,180
2017-08-01T13:51:23.140Z,180
2017-08-01T13:52:37.355Z,180
2017-08-01T13:53:39.257Z,180
2017-08-01T13:54:41.137Z,180
2017-08-01T13:55:43.043Z,180
2017-08-01T13:56:44.883Z,180
2017-08-01T13:57:46.706Z,185
2017-08-01T13:58:48.603Z,185
2017-08-01T13:59:50.487Z,185
2017-08-01T14:00:52.367Z,185
2017-08-01T14:02:06.526Z,185
2017-08-01T14:03:08.404Z,185
2017-08-01T14:04:10.311Z,185
2017-08-01T14:05:12.221Z,185
2017-08-01T14:06:14.038Z,185
2017-08-01T14:07:15.880Z,185
2017-08-01T14:08:17.785Z,185
2017-08-01T14:09:19.693Z,185
2017-08-01T14:10:21.594Z,185
2017-08-01T14:11:35.761Z,185
2017-08-01T14:12:37.661Z,185
2017-08-01T14:13:39.573Z,185
2017-08-01T14:14:41.481Z,190
2017-08-01T14:15:43.331Z,190
2017-08-01T14:16:45.151Z,190
2017-08-01T14:17:47.052Z,190
2017-08-01T14:18:48.938Z,190
2017-08-01T14:19:50.839Z,190
2017-08-01T14:21:04.994Z,190
2017-08-01T14:22:06.875Z,190
2017-08-01T14:23:08.759Z,190
2017-08-01T14:24:10.665Z,190
2017-08-01T14:25:12.508Z,190
2017-08-01T14:26:14.329Z,190
2017-08-01T14:27:16.235Z,190
2017-08-01T14:28:18.140Z,190
2017-08-01T14:29:20.022Z,190
2017-08-01T14:30:34.182Z,190
2017-08-01T14:31:36.086Z,190
2017-08-01T14:32:37.992Z,190
2017-08-01T14:33:39.897Z,190
2017-08-01T14:34:41.751Z,190
2017-08-01T14:35:43.588Z,190
2017-08-01T14:36:45.475Z,190
2017-08-01T14:37:47.382Z,190
2017-08-01T14:38:49.257Z,190
2017-08-01T14:40:03.398Z,190
2017-08-01T14:41:05.245Z,190
2017-08-01T14:42:07.094Z,190
2017-08-01T14:43:08.948Z,190
2017-08-01T14:44:10.791Z,190
2017-08-01T14:45:12.614Z,195
2017-08-01T14:46:14.479Z,195
2017-08-01T14:47:16.327Z,200
2017-08-01T14:48:18.172Z,195